Map

Track Data

SID SEASON NUMBER BASIN SUBBASIN NAME ISO_TIME NATURE LAT LON WMO_WIND WMO_PRES WMO_AGENCY TRACK_TYPE DIST2LAND LANDFALL IFLAG USA_AGENCY USA_ATCF_ID USA_LAT USA_LON USA_RECORD USA_STATUS USA_WIND USA_PRES USA_SSHS USA_R34_NE USA_R34_SE USA_R34_SW USA_R34_NW USA_R50_NE USA_R50_SE USA_R50_SW USA_R50_NW USA_R64_NE USA_R64_SE USA_R64_SW USA_R64_NW USA_POCI USA_ROCI USA_RMW USA_EYE TOKYO_LAT TOKYO_LON TOKYO_GRADE TOKYO_WIND TOKYO_PRES TOKYO_R50_DIR TOKYO_R50_LONG TOKYO_R50_SHORT TOKYO_R30_DIR TOKYO_R30_LONG TOKYO_R30_SHORT TOKYO_LAND CMA_LAT CMA_LON CMA_CAT CMA_WIND CMA_PRES HKO_LAT HKO_LON HKO_CAT HKO_WIND HKO_PRES NEWDELHI_LAT NEWDELHI_LON NEWDELHI_GRADE NEWDELHI_WIND NEWDELHI_PRES NEWDELHI_CI NEWDELHI_DP NEWDELHI_POCI REUNION_LAT REUNION_LON REUNION_TYPE REUNION_WIND REUNION_PRES REUNION_TNUM REUNION_CI REUNION_RMW REUNION_R34_NE REUNION_R34_SE REUNION_R34_SW REUNION_R34_NW REUNION_R50_NE REUNION_R50_SE REUNION_R50_SW REUNION_R50_NW REUNION_R64_NE REUNION_R64_SE REUNION_R64_SW REUNION_R64_NW BOM_LAT BOM_LON BOM_TYPE BOM_WIND BOM_PRES BOM_TNUM BOM_CI BOM_RMW BOM_R34_NE BOM_R34_SE BOM_R34_SW BOM_R34_NW BOM_R50_NE BOM_R50_SE BOM_R50_SW BOM_R50_NW BOM_R64_NE BOM_R64_SE BOM_R64_SW BOM_R64_NW BOM_ROCI BOM_POCI BOM_EYE BOM_POS_METHOD BOM_PRES_METHOD NADI_LAT NADI_LON NADI_CAT NADI_WIND NADI_PRES WELLINGTON_LAT WELLINGTON_LON WELLINGTON_WIND WELLINGTON_PRES DS824_LAT DS824_LON DS824_STAGE DS824_WIND DS824_PRES TD9636_LAT TD9636_LON TD9636_STAGE TD9636_WIND TD9636_PRES TD9635_LAT TD9635_LON TD9635_WIND TD9635_PRES TD9635_ROCI NEUMANN_LAT NEUMANN_LON NEUMANN_CLASS NEUMANN_WIND NEUMANN_PRES MLC_LAT MLC_LON MLC_CLASS MLC_WIND MLC_PRES USA_GUST BOM_GUST BOM_GUST_PER REUNION_GUST REUNION_GUST_PER USA_SEAHGT USA_SEARAD_NE USA_SEARAD_SE USA_SEARAD_SW USA_SEARAD_NW STORM_SPEED STORM_DIR
2001213N18139 2001 41 WP MM NOT_NAMED 2001-08-01 00:00:00 TS 18.0000 139.000 main 1587 1537 __O___________ -1 18.0000 139.000 1 23 1004 16 300
2001213N18139 2001 41 WP MM NOT_NAMED 2001-08-01 03:00:00 TS 18.4079 138.258 main 1537 1482 __P___________ -1 18.4079 138.258 1 23 1003 16 299
2001213N18139 2001 41 WP MM NOT_NAMED 2001-08-01 06:00:00 TS 18.8000 137.500 main 1482 1434 __O___________ -1 18.8000 137.500 1 23 1002 16 298
2001213N18139 2001 41 WP MM NOT_NAMED 2001-08-01 09:00:00 TS 19.1775 136.727 main 1431 1379 __P___________ -1 19.1775 136.727 1 23 1002 16 299
2001213N18139 2001 41 WP MM NOT_NAMED 2001-08-01 12:00:00 TS 19.6000 136.000 main 1379 1305 __O___________ -1 19.6000 136.000 1 23 1002 16 307
2001213N18139 2001 41 WP MM NOT_NAMED 2001-08-01 15:00:00 TS 20.1420 135.385 main 1305 1221 __P___________ -1 20.1420 135.385 1 23 1002 16 314
2001213N18139 2001 41 WP MM NOT_NAMED 2001-08-01 18:00:00 TS 20.7000 134.800 main 1221 1159 __O___________ -1 20.7000 134.800 1 23 1002 15 313
2001213N18139 2001 41 WP MM NOT_NAMED 2001-08-01 21:00:00 TS 21.1716 134.209 main 1148 1086 __P___________ -1 21.1716 134.209 1 23 1002 15 307
2001213N18139 2001 41 WP MM NOT_NAMED 2001-08-02 00:00:00 TS 21.6000 133.500 main 1086 1022 __O___________ -1 21.6000 133.500 1 23 1002 18 298
2001213N18139 2001 41 WP MM NOT_NAMED 2001-08-02 03:00:00 TS 22.0077 132.552 main 1022 964 __P___________ -1 22.0077 132.552 1 23 1002 20 293
2001213N18139 2001 41 WP MM NOT_NAMED 2001-08-02 06:00:00 TS 22.4000 131.500 main 963 905 __O___________ -1 22.4000 131.500 1 23 1002 21 294
2001213N18139 2001 41 WP MM NOT_NAMED 2001-08-02 09:00:00 TS 22.8514 130.523 main 893 795 __P___________ -1 22.8514 130.523 1 26 1001 20 293
2001213N18139 2001 41 WP MM NOT_NAMED 2001-08-02 12:00:00 TS 23.2000 129.500 main 785 683 __O___________ -1 23.2000 129.500 1 29 1000 20 283
2001213N18139 2001 41 WP MM NOT_NAMED 2001-08-02 15:00:00 TS 23.3018 128.386 main 673 564 __P___________ -1 23.3018 128.386 1 29 1000 21 273
2001213N18139 2001 41 WP MM NOT_NAMED 2001-08-02 18:00:00 TS 23.3000 127.200 main 554 437 __O___________ -1 23.3000 127.200 1 29 1000 23 270
2001213N18139 2001 41 WP MM NOT_NAMED 2001-08-02 21:00:00 TS 23.3202 125.927 main 427 319 __P___________ -1 23.3202 125.927 1 29 1000 23 272
2001213N18139 2001 41 WP MM NOT_NAMED 2001-08-03 00:00:00 TS 23.4000 124.700 main 309 208 __O___________ -1 23.4000 124.700 1 29 1000 21 278
2001213N18139 2001 41 WP MM NOT_NAMED 2001-08-03 03:00:00 TS 23.6037 123.655 main 208 113 __P___________ -1 23.6037 123.655 1 29 1001 19 285
2001213N18139 2001 41 WP MM NOT_NAMED 2001-08-03 06:00:00 TS 23.9000 122.700 main 105 10 __O___________ -1 23.9000 122.700 1 29 1002 19 289
2001213N18139 2001 41 WP MM NOT_NAMED 2001-08-03 09:00:00 TS 24.2206 121.653 main 10 0 __P___________ -1 24.2206 121.653 1 29 1002 19 292
2001213N18139 2001 41 WP MM NOT_NAMED 2001-08-03 12:00:00 TS 24.6000 120.800 main 0 0 __O___________ -1 24.6000 120.800 1 29 1002 14 304
2001213N18139 2001 41 WP MM NOT_NAMED 2001-08-03 15:00:00 TS 25.0265 120.344 main 60 40 __P___________ -1 25.0265 120.344 1 26 1003 11 325
2001213N18139 2001 41 WP MM NOT_NAMED 2001-08-03 18:00:00 TS 25.5000 120.100 main 41 19 __O___________ -1 25.5000 120.100 1 23 1004 11 336
2001213N18139 2001 41 WP MM NOT_NAMED 2001-08-03 21:00:00 TS 25.9922 119.864 main 19 0 __P___________ -1 25.9922 119.864 1 23 1004 11 336
2001213N18139 2001 41 WP MM NOT_NAMED 2001-08-04 00:00:00 TS 26.5000 119.600 main 0 0 __O___________ -1 26.5000 119.600 1 23 1004 12 328
2001213N18139 2001 41 WP MM NOT_NAMED 2001-08-04 03:00:00 TS 26.9626 119.180 main 0 0 __P___________ -1 26.9626 119.180 1 23 1004 13 321
2001213N18139 2001 41 WP MM NOT_NAMED 2001-08-04 06:00:00 TS 27.5000 118.700 main 0 0 __O___________ -1 27.5000 118.700 1 23 1004 16 325
2001213N18139 2001 41 WP MM NOT_NAMED 2001-08-04 09:00:00 TS 28.2428 118.154 main 0 0 __P___________ -1 28.2428 118.154 1 21 1004 17 332
2001213N18139 2001 41 WP MM NOT_NAMED 2001-08-04 12:00:00 TS 29.0000 117.800 main 0 0 __O___________ -1 29.0000 117.800 0 19 1004 14 349
2001213N18139 2001 41 WP MM NOT_NAMED 2001-08-04 15:00:00 TS 29.6169 117.849 main 0 0 __P___________ -1 29.6169 117.849 0 19 1004 12 18
2001213N18139 2001 41 WP MM NOT_NAMED 2001-08-04 18:00:00 TS 30.1000 118.200 main 0 0 __O___________ -1 30.1000 118.200 0 19 1004 11 43
2001213N18139 2001 41 WP MM NOT_NAMED 2001-08-04 21:00:00 TS 30.4607 118.742 main 0 0 __P___________ -1 30.4607 118.742 0 21 1004 11 58
2001213N18139 2001 41 WP MM NOT_NAMED 2001-08-05 00:00:00 TS 30.7000 119.300 main 0 0 __O___________ -1 30.7000 119.300 1 23 1004 8 60
2001213N18139 2001 41 WP MM NOT_NAMED 2001-08-05 03:00:00 TS 30.8796 119.596 main 0 0 __P___________ -1 30.8796 119.596 1 23 1004 5 55
2001213N18139 2001 41 WP MM NOT_NAMED 2001-08-05 06:00:00 TS 31.0000 119.800 main 0 0 __O___________ -1 31.0000 119.800 1 23 1004 4 59
2001213N18139 2001 41 WP MM NOT_NAMED 2001-08-05 09:00:00 TS 31.0921 120.005 main 0 0 __P___________ -1 31.0921 120.005 1 23 1004 5 65
2001213N18139 2001 41 WP MM NOT_NAMED 2001-08-05 12:00:00 TS 31.2000 120.300 main 0 0 __O___________ -1 31.2000 120.300 1 23 1004 8 67
2001213N18139 2001 41 WP MM NOT_NAMED 2001-08-05 15:00:00 TS 31.3930 120.827 main 0 0 __P___________ -1 31.3930 120.827 1 26 1002 10 67
2001213N18139 2001 41 WP MM NOT_NAMED 2001-08-05 18:00:00 TS 31.6000 121.400 main 14 0 __O___________ -1 31.6000 121.400 1 29 1000 9 67
2001213N18139 2001 41 WP MM NOT_NAMED 2001-08-05 21:00:00 TS 31.7648 121.838 main 0 0 __P___________ -1 31.7648 121.838 1 29 1000 7 66
2001213N18139 2001 41 WP MM NOT_NAMED 2001-08-06 00:00:00 TS 31.9000 122.200 main 36 36 __O___________ -1 31.9000 122.200 1 29 1000 6 68
2001213N18139 2001 41 WP MM NOT_NAMED 2001-08-06 03:00:00 TS 31.9998 122.508 main 65 65 __P___________ -1 31.9998 122.508 1 26 1000 5 69
2001213N18139 2001 41 WP MM NOT_NAMED 2001-08-06 06:00:00 TS 32.1000 122.800 main 95 95 __O___________ -1 32.1000 122.800 1 23 1000 6 69
2001213N18139 2001 41 WP MM NOT_NAMED 2001-08-06 09:00:00 TS 32.2048 123.128 main 126 126 __P___________ -1 32.2048 123.128 1 23 1000 7 63
2001213N18139 2001 41 WP MM NOT_NAMED 2001-08-06 12:00:00 TS 32.4000 123.500 main 169 169 __O___________ -1 32.4000 123.500 1 23 1000 9 52
2001213N18139 2001 41 WP MM NOT_NAMED 2001-08-06 15:00:00 TS 32.7400 123.935 main 218 167 __P___________ -1 32.7400 123.935 1 23 1000 11 43
2001213N18139 2001 41 WP MM NOT_NAMED 2001-08-06 18:00:00 TS 33.2000 124.400 main 167 133 __O___________ -1 33.2000 124.400 1 23 1000 13 38
2001213N18139 2001 41 WP MM NOT_NAMED 2001-08-06 21:00:00 TS 33.7349 124.857 main 128 97 __P___________ -1 33.7349 124.857 1 23 1000 13 34
2001213N18139 2001 41 WP MM NOT_NAMED 2001-08-07 00:00:00 TS 34.3000 125.300 main 97 55 __O___________ -1 34.3000 125.300 1 23 1000 13 33
2001213N18139 2001 41 WP MM NOT_NAMED 2001-08-07 03:00:00 TS 34.8223 125.708 main 55 18 __P___________ -1 34.8223 125.708 1 23 1000 12 33
2001213N18139 2001 41 WP MM NOT_NAMED 2001-08-07 06:00:00 TS 35.3000 126.100 main 21 9 __O___________ -1 35.3000 126.100 1 23 1000 11 34
2001213N18139 2001 41 WP MM NOT_NAMED 2001-08-07 09:00:00 TS 35.7066 126.442 main 14 0 __P___________ -1 35.7066 126.442 1 23 1000 10 39
2001213N18139 2001 41 WP MM NOT_NAMED 2001-08-07 12:00:00 TS 36.1000 126.900 main 0 0 __O___________ -1 36.1000 126.900 1 23 1000 13 48
2001213N18139 2001 41 WP MM NOT_NAMED 2001-08-07 15:00:00 TS 36.5650 127.617 main 0 0 __P___________ -1 36.5650 127.617 1 23 1001 16 55
2001213N18139 2001 41 WP MM NOT_NAMED 2001-08-07 18:00:00 TS 37.0000 128.500 main 0 0 __O___________ -1 37.0000 128.500 1 23 1002 16 62
2001213N18139 2001 41 WP MM NOT_NAMED 2001-08-07 21:00:00 TS 37.3338 129.440 main 8 8 __P___________ -1 37.3338 129.440 1 23 1002 16 68
2001213N18139 2001 41 WP MM NOT_NAMED 2001-08-08 00:00:00 TS 37.6000 130.400 main 102 __O___________ -1 37.6000 130.400 1 23 1002 16 71

Digital Typhoon Data and Search

About IBTrACS Database

This database is a web-friendly format of International Best Track Archive for Climate Stewardship (IBTrACS), a global best track data archive curated by NOAA dating back to 1842.

Updated: 2021-10-21